Time;durP1;ratioP1;P1;durP2;ratioP2;P2;SDS_P1;SDS_P2;PMS_P1;PMS_P2;Temp;Humidity;BMP_temperature;BMP_pressure;BME280_temperature;BME280_humidity;BME280_pressure;Samples;Min_cycle;Max_cycle;Signal;HPM_P1;HPM_P2
2022/12/03 00:00:47;;;;;;;4.27;1.60;;;;;;;;;;5070973;28;20266;-86
2022/12/03 00:03:14;;;;;;;2.50;1.93;;;;;;;;;;5070878;28;20259;-86
2022/12/03 00:05:41;;;;;;;2.80;2.57;;;;;;;;;;5061740;28;20206;-86
2022/12/03 00:08:08;;;;;;;2.80;2.53;;;;;;;;;;5065364;28;20209;-86
2022/12/03 00:10:34;;;;;;;5.83;2.53;;;;;;;;;;5070456;28;20198;-86
2022/12/03 00:13:03;;;;;;;6.30;2.53;;;;;;;;;;5058305;28;20213;-86
2022/12/03 00:15:29;;;;;;;5.50;3.30;;;;;;;;;;5059743;28;20209;-86
2022/12/03 00:17:56;;;;;;;3.03;2.73;;;;;;;;;;5074513;28;20196;-86
2022/12/03 00:20:24;;;;;;;4.50;3.97;;;;;;;;;;5073845;28;20233;-86
2022/12/03 00:22:51;;;;;;;3.73;2.80;;;;;;;;;;5074399;28;20270;-86
2022/12/03 00:25:18;;;;;;;7.10;2.10;;;;;;;;;;5072205;28;20213;-87
2022/12/03 00:27:45;;;;;;;1.87;1.77;;;;;;;;;;5063788;28;20213;-87
2022/12/03 00:30:14;;;;;;;3.40;2.77;;;;;;;;;;5073927;28;20209;-86
2022/12/03 00:32:41;;;;;;;3.07;2.73;;;;;;;;;;5074230;28;20213;-87
2022/12/03 00:35:08;;;;;;;2.50;2.03;;;;;;;;;;5060069;28;20264;-84
2022/12/03 00:37:35;;;;;;;5.07;2.60;;;;;;;;;;5053876;28;20467;-85
2022/12/03 00:40:02;;;;;;;3.00;2.70;;;;;;;;;;5064877;28;20229;-85
2022/12/03 00:42:28;;;;;;;3.07;2.00;;;;;;;;;;5059681;28;20232;-84
2022/12/03 00:44:55;;;;;;;6.87;2.60;;;;;;;;;;5073875;28;20205;-85
2022/12/03 00:47:24;;;;;;;2.83;2.63;;;;;;;;;;5073506;28;20209;-89
2022/12/03 00:49:51;;;;;;;1.80;1.67;;;;;;;;;;5073312;28;20687;-86
2022/12/03 00:52:18;;;;;;;8.07;2.30;;;;;;;;;;5073689;28;20213;-85
2022/12/03 00:54:44;;;;;;;2.40;2.20;;;;;;;;;;5073296;28;20216;-85
2022/12/03 00:57:11;;;;;;;4.37;2.47;;;;;;;;;;5073377;28;20208;-85
2022/12/03 00:59:38;;;;;;;2.13;1.93;;;;;;;;;;5072454;28;20237;-85
2022/12/03 01:02:05;;;;;;;4.43;2.20;;;;;;;;;;5060290;28;20201;-85
2022/12/03 01:04:33;;;;;;;2.13;1.93;;;;;;;;;;5073527;28;20209;-85
2022/12/03 01:07:00;;;;;;;2.90;1.80;;;;;;;;;;5067101;28;20292;-86
2022/12/03 01:09:27;;;;;;;16.23;2.33;;;;;;;;;;5053122;28;20210;-85
2022/12/03 01:11:54;;;;;;;3.80;2.23;;;;;;;;;;5070843;28;20776;-84
2022/12/03 01:14:20;;;;;;;9.43;2.50;;;;;;;;;;5073098;28;20635;-85
2022/12/03 01:16:48;;;;;;;2.30;2.03;;;;;;;;;;5073190;28;20263;-93
2022/12/03 01:19:15;;;;;;;3.93;3.23;;;;;;;;;;5073014;28;20805;-85
2022/12/03 01:21:44;;;;;;;6.23;5.17;;;;;;;;;;5072019;28;20597;-85
2022/12/03 01:24:11;;;;;;;6.07;4.83;;;;;;;;;;5052502;28;20648;-85
2022/12/03 01:26:38;;;;;;;6.00;5.07;;;;;;;;;;5065587;28;20213;-85
2022/12/03 01:29:05;;;;;;;6.60;3.70;;;;;;;;;;5072360;28;20198;-85
2022/12/03 01:34:17;;;;;;;6.30;5.43;;;;;;;;;;5072872;28;20243;-85
2022/12/03 01:36:46;;;;;;;4.23;3.83;;;;;;;;;;5060743;28;20210;-84
2022/12/03 01:39:12;;;;;;;3.43;3.10;;;;;;;;;;5052286;28;20265;-85
2022/12/03 01:41:39;;;;;;;4.83;3.93;;;;;;;;;;5052737;28;20238;-85
2022/12/03 01:44:14;;;;;;;5.73;3.93;;;;;;;;;;5055198;28;20615;-84
2022/12/03 01:46:41;;;;;;;3.30;3.00;;;;;;;;;;5072359;28;20201;-85
2022/12/03 01:49:09;;;;;;;5.47;4.40;;;;;;;;;;5072668;28;20612;-85
2022/12/03 01:51:36;;;;;;;7.50;3.90;;;;;;;;;;5072224;28;20565;-85
2022/12/03 01:54:04;;;;;;;6.13;4.03;;;;;;;;;;5072914;28;20664;-85
2022/12/03 01:56:31;;;;;;;2.87;2.57;;;;;;;;;;5072036;28;20680;-85
2022/12/03 01:58:58;;;;;;;2.77;2.53;;;;;;;;;;5071864;28;20684;-85
2022/12/03 02:01:25;;;;;;;4.00;2.10;;;;;;;;;;5070520;28;20278;-86
2022/12/03 02:03:51;;;;;;;2.23;2.03;;;;;;;;;;5052314;28;20604;-84
2022/12/03 02:06:20;;;;;;;4.13;2.43;;;;;;;;;;5052137;28;20236;-85
2022/12/03 02:08:48;;;;;;;4.60;1.90;;;;;;;;;;5058438;28;20224;-85
2022/12/03 02:11:20;;;;;;;4.00;2.00;;;;;;;;;;5071852;28;20231;-86
2022/12/03 02:13:48;;;;;;;3.43;1.50;;;;;;;;;;5071883;28;20296;-85
2022/12/03 02:16:15;;;;;;;5.40;1.73;;;;;;;;;;5060025;28;20285;-85
2022/12/03 02:18:42;;;;;;;17.67;9.43;;;;;;;;;;5069633;28;20238;-86
2022/12/03 02:21:14;;;;;;;9.17;5.47;;;;;;;;;;5065053;28;20306;-86
2022/12/03 02:23:44;;;;;;;4.27;3.47;;;;;;;;;;5054545;28;20677;-86
2022/12/03 02:26:16;;;;;;;10.50;3.50;;;;;;;;;;5061117;28;20197;-86
2022/12/03 02:28:42;;;;;;;3.50;2.70;;;;;;;;;;5057832;28;20209;-86
2022/12/03 02:31:09;;;;;;;2.53;1.60;;;;;;;;;;5071832;28;20212;-85
2022/12/03 02:33:36;;;;;;;5.27;1.60;;;;;;;;;;5071419;28;20205;-87
2022/12/03 02:36:04;;;;;;;17.33;3.37;;;;;;;;;;5071106;28;20698;-85
2022/12/03 02:38:31;;;;;;;24.30;3.83;;;;;;;;;;5058368;28;20209;-86
2022/12/03 02:41:00;;;;;;;10.03;3.20;;;;;;;;;;5065278;28;20237;-86
2022/12/03 02:43:27;;;;;;;6.03;3.40;;;;;;;;;;5063116;28;20196;-86
2022/12/03 02:45:56;;;;;;;2.50;2.30;;;;;;;;;;5071246;28;20658;-86
2022/12/03 02:48:26;;;;;;;2.20;2.00;;;;;;;;;;5071126;28;20259;-90
2022/12/03 02:50:55;;;;;;;2.20;1.97;;;;;;;;;;5071366;28;20278;-86
2022/12/03 02:53:23;;;;;;;2.00;1.80;;;;;;;;;;5072017;28;20212;-86
2022/12/03 02:55:51;;;;;;;1.77;1.63;;;;;;;;;;5055520;28;20209;-86
2022/12/03 02:58:18;;;;;;;3.23;2.70;;;;;;;;;;5069133;28;20603;-86
2022/12/03 03:00:48;;;;;;;2.90;2.60;;;;;;;;;;5070740;28;20233;-89
2022/12/03 03:03:16;;;;;;;2.33;2.13;;;;;;;;;;5068600;28;20299;-86
2022/12/03 03:05:43;;;;;;;2.17;1.90;;;;;;;;;;5060215;28;20748;-86
2022/12/03 03:08:10;;;;;;;1.43;1.33;;;;;;;;;;5057258;28;20206;-85
2022/12/03 03:10:38;;;;;;;1.53;1.43;;;;;;;;;;5071027;28;20580;-85
2022/12/03 03:13:09;;;;;;;1.33;1.23;;;;;;;;;;5057434;28;20209;-86
2022/12/03 03:15:36;;;;;;;1.57;1.47;;;;;;;;;;5057498;28;20265;-86
2022/12/03 03:18:05;;;;;;;1.00;1.00;;;;;;;;;;5071351;28;20697;-85
2022/12/03 03:20:32;;;;;;;1.50;1.17;;;;;;;;;;5070644;28;20235;-86
2022/12/03 03:23:05;;;;;;;2.50;2.30;;;;;;;;;;5070791;28;20721;-86
2022/12/03 03:25:32;;;;;;;9.17;6.93;;;;;;;;;;5066638;28;20600;-86
2022/12/03 03:27:59;;;;;;;2.50;2.13;;;;;;;;;;5050551;28;20652;-86
2022/12/03 03:30:26;;;;;;;10.80;6.83;;;;;;;;;;5065305;28;20212;-87
2022/12/03 03:32:52;;;;;;;6.50;4.97;;;;;;;;;;5059863;28;20239;-86
2022/12/03 03:35:21;;;;;;;12.27;8.90;;;;;;;;;;5070404;28;20212;-85
2022/12/03 03:37:47;;;;;;;4.70;3.73;;;;;;;;;;5051406;28;20267;-85
2022/12/03 03:40:14;;;;;;;2.40;2.03;;;;;;;;;;5050409;28;20763;-85
2022/12/03 03:42:41;;;;;;;2.50;2.30;;;;;;;;;;5070188;28;20258;-86
2022/12/03 03:45:09;;;;;;;3.47;3.17;;;;;;;;;;5059161;28;20209;-85
2022/12/03 03:47:37;;;;;;;2.60;2.40;;;;;;;;;;5054779;28;20266;-86
2022/12/03 03:50:04;;;;;;;2.77;2.57;;;;;;;;;;5074803;28;20204;-85
2022/12/03 03:52:33;;;;;;;2.10;1.90;;;;;;;;;;5074329;28;20680;-86
2022/12/03 03:54:59;;;;;;;4.37;2.33;;;;;;;;;;5074245;28;20212;-86
2022/12/03 03:57:26;;;;;;;2.50;2.30;;;;;;;;;;5075034;28;20639;-86
2022/12/03 03:59:53;;;;;;;1.93;1.60;;;;;;;;;;5074553;28;20232;-86
2022/12/03 04:02:21;;;;;;;2.33;2.03;;;;;;;;;;5074453;28;20216;-86
2022/12/03 04:04:49;;;;;;;2.33;2.13;;;;;;;;;;5074694;28;20197;-86
2022/12/03 04:07:16;;;;;;;3.57;2.97;;;;;;;;;;5074110;28;20208;-86
2022/12/03 04:09:44;;;;;;;2.30;2.10;;;;;;;;;;5074159;28;20201;-85
2022/12/03 04:14:56;;;;;;;2.33;2.13;;;;;;;;;;5073646;28;20216;-85
2022/12/03 04:17:22;;;;;;;2.30;2.10;;;;;;;;;;5061442;28;20216;-86
2022/12/03 04:19:49;;;;;;;2.03;1.83;;;;;;;;;;5074024;28;20270;-86
2022/12/03 04:30:26;;;;;;;3.17;2.17;;;;;;;;;;5073918;28;20208;-87
2022/12/03 04:35:42;;;;;;;2.53;2.33;;;;;;;;;;5073813;28;20219;-86
2022/12/03 04:38:09;;;;;;;2.30;2.10;;;;;;;;;;5073831;28;20209;-86
2022/12/03 04:43:32;;;;;;;2.83;2.57;;;;;;;;;;5037170;28;20212;-87
2022/12/03 04:45:59;;;;;;;4.07;3.33;;;;;;;;;;5073896;28;20304;-85
2022/12/03 04:48:26;;;;;;;5.37;3.67;;;;;;;;;;5073538;28;20695;-86
2022/12/03 04:50:52;;;;;;;9.63;6.20;;;;;;;;;;5071035;28;20266;-86
2022/12/03 04:53:19;;;;;;;8.80;6.93;;;;;;;;;;5053583;28;20295;-86
2022/12/03 04:55:47;;;;;;;5.30;4.57;;;;;;;;;;5053192;28;20271;-86
2022/12/03 04:58:15;;;;;;;5.17;4.23;;;;;;;;;;5057006;28;20590;-86
2022/12/03 05:00:42;;;;;;;5.77;5.10;;;;;;;;;;5062405;28;20688;-86
2022/12/03 05:03:09;;;;;;;11.30;6.80;;;;;;;;;;5067291;28;20684;-86
2022/12/03 05:05:36;;;;;;;6.17;5.57;;;;;;;;;;5061261;28;20675;-86
2022/12/03 05:08:02;;;;;;;8.13;5.63;;;;;;;;;;5058688;28;20592;-87
2022/12/03 05:10:29;;;;;;;7.73;6.33;;;;;;;;;;5059608;28;20209;-88
2022/12/03 05:12:58;;;;;;;7.17;6.03;;;;;;;;;;5074074;28;20679;-87
2022/12/03 05:15:25;;;;;;;6.00;5.37;;;;;;;;;;5055806;28;20640;-87
2022/12/03 05:17:52;;;;;;;5.33;4.83;;;;;;;;;;5073544;28;20331;-88
2022/12/03 05:23:03;;;;;;;5.53;4.87;;;;;;;;;;5044551;28;20211;-87
2022/12/03 05:25:30;;;;;;;5.53;4.63;;;;;;;;;;5055460;28;20216;-90
2022/12/03 05:28:01;;;;;;;6.30;5.70;;;;;;;;;;5046486;28;20221;-87
2022/12/03 05:30:28;;;;;;;6.87;5.37;;;;;;;;;;5067851;28;20642;-87
2022/12/03 05:32:55;;;;;;;7.33;5.13;;;;;;;;;;5035819;28;20723;-88
2022/12/03 05:35:22;;;;;;;9.03;5.23;;;;;;;;;;5035224;28;20213;-87
2022/12/03 05:37:49;;;;;;;5.43;4.87;;;;;;;;;;5056111;28;20288;-88
2022/12/03 05:40:17;;;;;;;6.17;5.00;;;;;;;;;;5051402;28;20247;-88
2022/12/03 05:42:52;;;;;;;6.80;5.27;;;;;;;;;;5059994;28;20260;-88
2022/12/03 05:45:21;;;;;;;4.80;4.40;;;;;;;;;;5028263;28;20206;-88
2022/12/03 05:47:48;;;;;;;4.70;3.60;;;;;;;;;;5063746;28;20220;-88
2022/12/03 05:50:16;;;;;;;4.03;3.73;;;;;;;;;;5073219;28;20599;-88
2022/12/03 05:52:43;;;;;;;5.07;4.67;;;;;;;;;;5059442;28;20311;-88
2022/12/03 05:55:10;;;;;;;20.07;15.90;;;;;;;;;;5054885;28;20205;-89
2022/12/03 05:57:37;;;;;;;15.63;11.83;;;;;;;;;;5071238;28;20201;-87
2022/12/03 06:00:07;;;;;;;18.77;9.17;;;;;;;;;;5071702;28;20205;-87
2022/12/03 06:02:35;;;;;;;12.83;11.43;;;;;;;;;;5054235;28;20205;-87
2022/12/03 06:05:02;;;;;;;9.17;8.27;;;;;;;;;;5071132;28;20209;-87
2022/12/03 06:07:29;;;;;;;6.60;5.90;;;;;;;;;;5071327;28;20209;-87
2022/12/03 06:09:56;;;;;;;6.27;5.57;;;;;;;;;;5054893;28;20212;-87
2022/12/03 06:12:23;;;;;;;8.87;7.80;;;;;;;;;;5070022;28;20208;-87
2022/12/03 06:14:51;;;;;;;10.33;6.73;;;;;;;;;;5033705;28;20217;-82
2022/12/03 06:17:18;;;;;;;8.60;6.30;;;;;;;;;;5034197;28;20294;-86
2022/12/03 06:19:46;;;;;;;8.40;7.50;;;;;;;;;;5057782;28;20201;-85
2022/12/03 06:22:14;;;;;;;8.93;6.73;;;;;;;;;;5071730;28;20279;-85
2022/12/03 06:24:41;;;;;;;6.83;6.23;;;;;;;;;;5034970;28;20210;-86
2022/12/03 06:27:08;;;;;;;6.17;5.57;;;;;;;;;;5051384;28;20267;-86
2022/12/03 06:29:35;;;;;;;5.73;4.80;;;;;;;;;;5056602;28;20729;-86
2022/12/03 06:32:02;;;;;;;7.50;6.70;;;;;;;;;;5044179;28;20202;-87
2022/12/03 06:34:29;;;;;;;5.47;4.50;;;;;;;;;;5066508;28;20205;-87
2022/12/03 06:36:57;;;;;;;8.93;7.17;;;;;;;;;;5070202;28;20209;-86
2022/12/03 06:39:24;;;;;;;8.67;7.00;;;;;;;;;;5068612;28;20212;-91
2022/12/03 06:41:51;;;;;;;6.73;5.10;;;;;;;;;;5074121;28;20240;-90
2022/12/03 06:44:18;;;;;;;6.20;5.57;;;;;;;;;;5063488;28;20746;-94
2022/12/03 06:46:45;;;;;;;7.33;4.87;;;;;;;;;;5056811;28;20330;-91
2022/12/03 06:49:12;;;;;;;4.53;4.13;;;;;;;;;;5072602;28;20698;-90
2022/12/03 06:51:38;;;;;;;5.10;4.60;;;;;;;;;;5060165;28;20225;-90
2022/12/03 06:54:07;;;;;;;5.23;4.73;;;;;;;;;;5070034;28;20204;-92
2022/12/03 06:56:35;;;;;;;5.53;5.03;;;;;;;;;;5065479;28;20232;-92
2022/12/03 06:59:01;;;;;;;9.17;5.53;;;;;;;;;;5038652;28;20714;-83
2022/12/03 07:01:29;;;;;;;7.50;6.57;;;;;;;;;;5062797;28;20213;-82
2022/12/03 07:03:59;;;;;;;12.20;9.70;;;;;;;;;;5062494;28;20201;-84
2022/12/03 07:06:26;;;;;;;9.37;6.10;;;;;;;;;;5071057;28;20205;-82
2022/12/03 07:08:53;;;;;;;5.97;5.20;;;;;;;;;;5069240;28;20295;-84
2022/12/03 07:11:39;;;;;;;9.83;6.23;;;;;;;;;;5070572;28;20212;-85
2022/12/03 07:14:07;;;;;;;5.47;3.33;;;;;;;;;;5055423;28;20201;-85
2022/12/03 07:16:35;;;;;;;5.07;3.70;;;;;;;;;;5070880;28;20208;-86
2022/12/03 07:19:02;;;;;;;4.27;3.87;;;;;;;;;;5052818;28;20227;-85
2022/12/03 07:21:32;;;;;;;4.37;3.97;;;;;;;;;;5052903;28;20225;-86
2022/12/03 07:23:59;;;;;;;4.90;4.10;;;;;;;;;;5055604;28;20263;-84
2022/12/03 07:26:30;;;;;;;5.97;5.43;;;;;;;;;;5074728;28;20219;-83
2022/12/03 07:28:57;;;;;;;6.40;5.80;;;;;;;;;;5075015;28;20209;-84
2022/12/03 07:31:24;;;;;;;6.40;5.77;;;;;;;;;;5067923;28;20270;-86
2022/12/03 07:33:51;;;;;;;10.33;4.63;;;;;;;;;;5056695;28;20212;-85
2022/12/03 07:36:18;;;;;;;6.80;3.70;;;;;;;;;;5053037;28;20197;-90
2022/12/03 07:38:47;;;;;;;4.23;3.40;;;;;;;;;;5068864;28;20602;-93
2022/12/03 07:41:14;;;;;;;3.13;2.87;;;;;;;;;;5071525;28;20232;-93
2022/12/03 07:43:44;;;;;;;3.40;3.10;;;;;;;;;;5073659;28;20205;-93
2022/12/03 07:46:13;;;;;;;3.97;3.57;;;;;;;;;;5075583;28;20201;-85
2022/12/03 07:48:40;;;;;;;4.93;3.67;;;;;;;;;;5070620;28;20201;-85
2022/12/03 07:51:10;;;;;;;4.47;3.80;;;;;;;;;;5073895;28;20224;-85
2022/12/03 07:53:37;;;;;;;9.07;7.87;;;;;;;;;;5064275;28;20234;-88
2022/12/03 07:56:04;;;;;;;4.73;4.00;;;;;;;;;;5068907;28;20338;-87
2022/12/03 07:58:31;;;;;;;4.97;4.47;;;;;;;;;;5058928;28;20600;-86
2022/12/03 08:00:59;;;;;;;4.47;4.07;;;;;;;;;;5054588;28;20214;-87
2022/12/03 08:03:27;;;;;;;5.27;4.77;;;;;;;;;;5074196;28;20585;-89
2022/12/03 08:05:54;;;;;;;5.07;4.67;;;;;;;;;;5065157;28;20210;-84
2022/12/03 08:08:21;;;;;;;4.40;4.00;;;;;;;;;;5056442;28;20205;-84
2022/12/03 08:10:48;;;;;;;5.17;4.77;;;;;;;;;;5064706;28;20206;-86
2022/12/03 08:13:16;;;;;;;5.10;4.60;;;;;;;;;;5054716;28;20656;-85
2022/12/03 08:15:43;;;;;;;4.13;3.73;;;;;;;;;;5073642;28;20254;-85
2022/12/03 08:18:15;;;;;;;4.10;3.70;;;;;;;;;;5059795;28;20716;-84
2022/12/03 08:20:43;;;;;;;4.37;3.97;;;;;;;;;;5053752;28;20317;-84
2022/12/03 08:23:14;;;;;;;4.00;3.60;;;;;;;;;;5058282;28;20236;-86
2022/12/03 08:25:40;;;;;;;4.37;3.97;;;;;;;;;;5068095;28;20220;-88
2022/12/03 08:28:12;;;;;;;3.93;3.57;;;;;;;;;;5062208;28;20209;-85
2022/12/03 08:30:39;;;;;;;3.50;3.17;;;;;;;;;;5065487;28;20213;-88
2022/12/03 08:33:16;;;;;;;3.63;3.23;;;;;;;;;;5059362;28;20220;-87
2022/12/03 08:35:45;;;;;;;3.63;3.33;;;;;;;;;;5074379;28;20274;-88
2022/12/03 08:38:12;;;;;;;5.33;3.27;;;;;;;;;;5074267;28;20641;-87
2022/12/03 08:40:41;;;;;;;3.57;3.27;;;;;;;;;;5072931;28;20240;-88
2022/12/03 08:43:15;;;;;;;4.43;4.03;;;;;;;;;;5073795;28;20225;-88
2022/12/03 08:45:42;;;;;;;3.90;3.40;;;;;;;;;;5057274;28;20208;-88
2022/12/03 08:48:31;;;;;;;3.97;3.50;;;;;;;;;;5037430;28;20213;-87
2022/12/03 08:51:02;;;;;;;18.53;16.73;;;;;;;;;;5067716;28;20217;-87
2022/12/03 08:53:46;;;;;;;7.70;6.77;;;;;;;;;;5073633;28;20201;-88
2022/12/03 08:56:20;;;;;;;6.20;5.60;;;;;;;;;;5070713;28;20232;-88
2022/12/03 08:58:49;;;;;;;10.53;6.20;;;;;;;;;;5062175;28;20219;-88
2022/12/03 09:01:31;;;;;;;15.17;9.73;;;;;;;;;;5074533;28;20688;-88
2022/12/03 09:04:15;;;;;;;6.77;5.23;;;;;;;;;;5074466;28;20201;-87
2022/12/03 09:06:42;;;;;;;26.33;16.63;;;;;;;;;;5073799;28;20225;-88
2022/12/03 09:09:10;;;;;;;17.37;14.53;;;;;;;;;;5074389;28;20583;-87
2022/12/03 09:11:38;;;;;;;25.67;17.57;;;;;;;;;;5060550;28;20213;-88
2022/12/03 09:14:07;;;;;;;8.33;6.87;;;;;;;;;;5074001;28;20703;-88
2022/12/03 09:16:34;;;;;;;10.27;8.63;;;;;;;;;;5059366;28;20681;-88
2022/12/03 09:19:03;;;;;;;21.00;15.93;;;;;;;;;;5053734;28;20596;-88
2022/12/03 09:21:31;;;;;;;35.63;22.50;;;;;;;;;;5053978;28;20688;-88
2022/12/03 09:23:58;;;;;;;27.43;19.63;;;;;;;;;;5059308;28;20213;-88
2022/12/03 09:26:25;;;;;;;19.57;14.70;;;;;;;;;;5073650;28;20208;-88
2022/12/03 09:28:52;;;;;;;25.37;18.43;;;;;;;;;;5073787;28;20254;-88
2022/12/03 09:31:19;;;;;;;22.67;15.97;;;;;;;;;;5073957;28;20282;-88
2022/12/03 09:33:49;;;;;;;40.53;27.00;;;;;;;;;;5071739;28;20219;-88
2022/12/03 09:36:17;;;;;;;35.57;26.47;;;;;;;;;;5053991;28;20243;-88
2022/12/03 09:38:44;;;;;;;30.90;24.73;;;;;;;;;;5068855;28;20205;-88
2022/12/03 09:41:11;;;;;;;25.20;22.43;;;;;;;;;;5073189;28;20741;-88
2022/12/03 09:43:38;;;;;;;19.57;17.57;;;;;;;;;;5073964;28;20295;-89
2022/12/03 09:46:05;;;;;;;29.83;24.83;;;;;;;;;;5058803;28;20212;-88
2022/12/03 09:48:31;;;;;;;28.83;25.83;;;;;;;;;;5062436;28;20259;-88
2022/12/03 09:50:59;;;;;;;27.10;24.20;;;;;;;;;;5053351;28;20210;-89
2022/12/03 09:53:29;;;;;;;13.03;11.90;;;;;;;;;;5053812;28;20217;-89
2022/12/03 09:55:59;;;;;;;7.43;6.70;;;;;;;;;;5069672;28;20650;-89
2022/12/03 09:58:28;;;;;;;8.27;7.57;;;;;;;;;;5072905;28;20209;-89
2022/12/03 10:00:55;;;;;;;7.40;6.73;;;;;;;;;;5072139;28;20637;-89
2022/12/03 10:03:25;;;;;;;6.90;6.03;;;;;;;;;;5067570;28;20229;-89
2022/12/03 10:05:53;;;;;;;6.83;6.13;;;;;;;;;;5072755;28;20664;-90
2022/12/03 10:08:24;;;;;;;11.90;10.70;;;;;;;;;;5069781;28;20752;-89
2022/12/03 10:10:55;;;;;;;14.67;12.60;;;;;;;;;;5052713;28;20264;-89
2022/12/03 10:13:23;;;;;;;13.47;12.17;;;;;;;;;;5068927;28;20213;-89
2022/12/03 10:15:51;;;;;;;23.63;19.50;;;;;;;;;;5072907;28;20753;-89
2022/12/03 10:18:20;;;;;;;6.87;5.13;;;;;;;;;;5058508;28;20213;-89
2022/12/03 10:20:47;;;;;;;6.53;4.90;;;;;;;;;;5052777;28;20217;-89
2022/12/03 10:23:22;;;;;;;7.43;6.03;;;;;;;;;;5068235;28;20232;-90
2022/12/03 10:25:55;;;;;;;6.07;4.90;;;;;;;;;;5072487;28;20650;-89
2022/12/03 10:28:30;;;;;;;5.37;4.87;;;;;;;;;;5072660;28;20618;-90
2022/12/03 10:30:57;;;;;;;5.50;5.00;;;;;;;;;;5052482;28;20209;-89
2022/12/03 10:33:29;;;;;;;8.37;7.57;;;;;;;;;;5051883;28;20221;-89
2022/12/03 10:35:56;;;;;;;5.20;4.70;;;;;;;;;;5072439;28;20555;-90
2022/12/03 10:41:23;;;;;;;4.90;4.40;;;;;;;;;;5025109;28;20228;-89
2022/12/03 10:43:50;;;;;;;6.40;5.50;;;;;;;;;;5054247;28;20233;-90
2022/12/03 10:46:18;;;;;;;6.27;5.63;;;;;;;;;;5054502;28;20235;-89
2022/12/03 10:48:45;;;;;;;7.00;5.83;;;;;;;;;;5071765;28;20209;-89
2022/12/03 10:51:20;;;;;;;5.73;5.23;;;;;;;;;;5048984;28;20209;-90
2022/12/03 10:53:48;;;;;;;3.77;3.40;;;;;;;;;;5035707;28;20213;-90
2022/12/03 10:56:18;;;;;;;5.63;4.73;;;;;;;;;;5038328;28;20197;-90
2022/12/03 10:58:46;;;;;;;15.50;13.43;;;;;;;;;;5052307;28;20214;-89
2022/12/03 11:01:17;;;;;;;10.90;9.80;;;;;;;;;;5066288;28;20618;-90
2022/12/03 11:03:45;;;;;;;8.27;6.93;;;;;;;;;;5072289;28;20256;-90
2022/12/03 11:06:14;;;;;;;7.47;6.87;;;;;;;;;;5054385;28;20197;-89
2022/12/03 11:08:44;;;;;;;11.60;9.30;;;;;;;;;;5066351;28;20206;-89
2022/12/03 11:11:18;;;;;;;6.47;5.07;;;;;;;;;;5063820;28;20204;-90
2022/12/03 11:13:51;;;;;;;10.80;7.87;;;;;;;;;;5066882;28;20685;-89
2022/12/03 11:17:10;;;;;;;13.90;11.40;;;;;;;;;;5052021;28;20217;-89
2022/12/03 11:19:50;;;;;;;7.37;6.70;;;;;;;;;;5063706;28;20683;-89
2022/12/03 11:22:29;;;;;;;7.13;5.63;;;;;;;;;;5054095;28;20618;-89
2022/12/03 11:25:49;;;;;;;5.60;5.10;;;;;;;;;;5072064;28;20201;-90
2022/12/03 11:28:37;;;;;;;5.77;5.23;;;;;;;;;;5070763;28;20197;-91
2022/12/03 11:31:11;;;;;;;4.30;3.67;;;;;;;;;;5059782;28;20206;-90
2022/12/03 11:33:40;;;;;;;8.53;7.73;;;;;;;;;;5069782;28;20212;-90
2022/12/03 11:36:15;;;;;;;4.73;4.33;;;;;;;;;;5060344;28;20675;-82
2022/12/03 11:38:53;;;;;;;3.87;3.53;;;;;;;;;;5068847;28;20201;-85
2022/12/03 11:41:22;;;;;;;4.60;4.17;;;;;;;;;;5059575;28;20245;-84
2022/12/03 11:44:27;;;;;;;3.50;3.20;;;;;;;;;;5056550;28;20229;-83
2022/12/03 11:46:59;;;;;;;7.77;7.07;;;;;;;;;;5070281;28;20751;-84
2022/12/03 11:49:34;;;;;;;5.83;5.33;;;;;;;;;;5063906;28;20680;-83
2022/12/03 11:52:04;;;;;;;6.53;5.93;;;;;;;;;;5050014;28;20259;-83
2022/12/03 11:54:34;;;;;;;10.03;8.70;;;;;;;;;;5055832;28;20656;-84
2022/12/03 11:57:02;;;;;;;12.60;10.40;;;;;;;;;;5070140;28;20288;-83
2022/12/03 11:59:29;;;;;;;9.13;8.03;;;;;;;;;;5069896;28;20244;-85
2022/12/03 12:01:57;;;;;;;19.00;15.50;;;;;;;;;;5069790;28;20208;-86
2022/12/03 12:04:30;;;;;;;14.80;12.47;;;;;;;;;;5058252;28;20206;-84
2022/12/03 12:06:57;;;;;;;11.27;10.00;;;;;;;;;;5037937;28;20205;-86
2022/12/03 12:09:49;;;;;;;12.70;11.17;;;;;;;;;;5072181;28;20213;-85
2022/12/03 12:12:39;;;;;;;12.70;11.37;;;;;;;;;;5061617;28;20299;-83
2022/12/03 12:15:40;;;;;;;6.10;5.00;;;;;;;;;;5057576;28;20217;-82
2022/12/03 12:18:37;;;;;;;7.17;6.17;;;;;;;;;;5073745;28;20239;-84
2022/12/03 12:21:41;;;;;;;16.10;13.67;;;;;;;;;;5063059;28;20583;-85
2022/12/03 12:24:31;;;;;;;5.17;4.73;;;;;;;;;;5060474;28;20290;-86
2022/12/03 12:26:59;;;;;;;6.83;6.23;;;;;;;;;;5059562;28;20216;-86
2022/12/03 12:29:27;;;;;;;42.80;29.73;;;;;;;;;;5074231;28;20672;-85
2022/12/03 12:31:59;;;;;;;40.10;28.33;;;;;;;;;;5055371;28;20212;-84
2022/12/03 12:34:30;;;;;;;22.33;17.17;;;;;;;;;;5073343;28;20201;-88
2022/12/03 12:37:00;;;;;;;37.67;28.57;;;;;;;;;;5073307;28;20209;-86
2022/12/03 12:39:27;;;;;;;34.83;25.13;;;;;;;;;;5060463;28;20197;-87
2022/12/03 12:41:55;;;;;;;35.60;27.20;;;;;;;;;;5074217;28;20235;-88
2022/12/03 12:44:25;;;;;;;39.53;28.10;;;;;;;;;;5068904;28;20236;-87
2022/12/03 12:46:53;;;;;;;34.67;24.10;;;;;;;;;;5050115;28;20235;-86
2022/12/03 12:49:25;;;;;;;30.83;20.07;;;;;;;;;;5070849;28;20244;-86
2022/12/03 12:51:54;;;;;;;30.33;22.57;;;;;;;;;;5073458;28;20205;-86
2022/12/03 12:54:21;;;;;;;21.67;16.80;;;;;;;;;;5052866;28;20236;-86
2022/12/03 12:56:50;;;;;;;24.03;18.73;;;;;;;;;;5059451;28;20350;-88
2022/12/03 12:59:20;;;;;;;22.40;18.13;;;;;;;;;;5073880;28;20244;-88
2022/12/03 13:01:48;;;;;;;17.40;15.17;;;;;;;;;;5051277;28;20241;-86
2022/12/03 13:04:17;;;;;;;26.90;22.87;;;;;;;;;;5044884;28;20228;-84
2022/12/03 13:06:44;;;;;;;16.57;14.83;;;;;;;;;;5070038;28;20197;-86
2022/12/03 13:09:18;;;;;;;18.30;13.97;;;;;;;;;;5072521;28;20204;-84
2022/12/03 13:11:46;;;;;;;22.57;17.40;;;;;;;;;;5072632;28;20258;-86
2022/12/03 13:14:16;;;;;;;21.80;16.77;;;;;;;;;;5072783;28;20205;-85
2022/12/03 13:16:43;;;;;;;14.80;12.83;;;;;;;;;;5058534;28;20256;-84
2022/12/03 13:19:20;;;;;;;23.90;19.43;;;;;;;;;;5054428;28;20205;-84
2022/12/03 13:21:50;;;;;;;22.30;16.37;;;;;;;;;;5057136;28;20289;-84
2022/12/03 13:24:30;;;;;;;26.53;20.13;;;;;;;;;;5071999;28;20260;-86
2022/12/03 13:26:58;;;;;;;34.97;25.33;;;;;;;;;;5072239;28;20637;-85
2022/12/03 13:29:26;;;;;;;31.63;23.40;;;;;;;;;;5071887;28;20684;-86
2022/12/03 13:31:54;;;;;;;28.47;22.87;;;;;;;;;;5071883;28;20201;-85
2022/12/03 13:34:22;;;;;;;27.87;23.20;;;;;;;;;;5072006;28;20574;-83
2022/12/03 13:36:50;;;;;;;14.70;13.00;;;;;;;;;;5071314;28;20461;-84
2022/12/03 13:39:19;;;;;;;15.43;13.20;;;;;;;;;;5071507;28;20197;-83
2022/12/03 13:44:52;;;;;;;12.83;11.33;;;;;;;;;;5028583;28;20235;-83
2022/12/03 13:47:21;;;;;;;10.80;9.43;;;;;;;;;;5071301;28;20212;-83
2022/12/03 13:49:56;;;;;;;19.97;17.87;;;;;;;;;;5071541;28;20288;-82
2022/12/03 13:52:25;;;;;;;10.27;9.27;;;;;;;;;;5057368;28;20288;-82
2022/12/03 13:54:53;;;;;;;13.17;11.83;;;;;;;;;;5071397;28;20201;-83
2022/12/03 13:57:22;;;;;;;12.70;11.40;;;;;;;;;;5071089;28;20212;-84
2022/12/03 13:59:49;;;;;;;13.77;12.37;;;;;;;;;;5071383;28;20201;-82
2022/12/03 14:02:17;;;;;;;10.17;9.17;;;;;;;;;;5070317;28;20208;-86
2022/12/03 14:04:44;;;;;;;10.63;9.57;;;;;;;;;;5070147;28;20221;-86
2022/12/03 14:07:11;;;;;;;16.13;14.37;;;;;;;;;;5069051;28;20201;-86
2022/12/03 14:09:39;;;;;;;13.20;12.00;;;;;;;;;;5059141;28;20201;-86
2022/12/03 14:14:52;;;;;;;14.27;12.97;;;;;;;;;;5058658;28;20220;-86
2022/12/03 14:17:19;;;;;;;10.03;9.10;;;;;;;;;;5069061;28;20232;-86
2022/12/03 14:19:46;;;;;;;13.40;11.23;;;;;;;;;;5071142;28;20212;-86
2022/12/03 14:22:13;;;;;;;14.77;12.47;;;;;;;;;;5067645;28;20204;-85
2022/12/03 14:24:41;;;;;;;14.20;10.63;;;;;;;;;;5060383;28;20229;-86
2022/12/03 14:27:07;;;;;;;11.93;10.70;;;;;;;;;;5054167;28;20565;-85
2022/12/03 14:29:34;;;;;;;12.00;10.83;;;;;;;;;;5071080;28;20205;-86
2022/12/03 14:32:03;;;;;;;16.47;14.80;;;;;;;;;;5069437;28;20253;-86
2022/12/03 14:34:29;;;;;;;12.30;10.83;;;;;;;;;;5069549;28;20220;-86
2022/12/03 14:36:58;;;;;;;11.83;9.30;;;;;;;;;;5068239;28;20262;-86
2022/12/03 14:39:28;;;;;;;12.80;11.07;;;;;;;;;;5053287;28;20196;-86
2022/12/03 14:42:13;;;;;;;14.33;12.83;;;;;;;;;;5070062;28;20232;-85
2022/12/03 14:44:41;;;;;;;14.50;12.27;;;;;;;;;;5061599;28;20880;-85
2022/12/03 14:47:10;;;;;;;11.73;10.30;;;;;;;;;;5070619;28;20212;-86
2022/12/03 14:49:40;;;;;;;12.00;10.83;;;;;;;;;;5070594;28;20209;-85
2022/12/03 14:52:07;;;;;;;22.80;18.53;;;;;;;;;;5054370;28;20581;-86
2022/12/03 14:54:35;;;;;;;14.13;11.63;;;;;;;;;;5053804;28;20209;-86
2022/12/03 14:57:02;;;;;;;16.53;10.17;;;;;;;;;;5070019;28;20201;-86
2022/12/03 14:59:29;;;;;;;15.30;12.30;;;;;;;;;;5067489;28;20672;-86
2022/12/03 15:01:57;;;;;;;13.40;9.17;;;;;;;;;;5064253;28;20197;-85
2022/12/03 15:04:28;;;;;;;8.37;7.53;;;;;;;;;;5067226;28;20224;-86
2022/12/03 15:06:55;;;;;;;11.77;7.93;;;;;;;;;;5070986;28;20649;-86
2022/12/03 15:09:22;;;;;;;22.53;15.47;;;;;;;;;;5054123;28;20197;-86
2022/12/03 15:11:50;;;;;;;17.93;11.87;;;;;;;;;;5066762;28;20205;-85
2022/12/03 15:14:17;;;;;;;51.37;24.47;;;;;;;;;;5064072;28;20205;-86
2022/12/03 15:16:44;;;;;;;33.63;22.50;;;;;;;;;;5068245;28;20197;-86
2022/12/03 15:19:11;;;;;;;46.50;27.50;;;;;;;;;;5071301;28;20216;-86